Flight Track Log - Related Links

Times and Time Zones

All times are in EDT time to prevent confusion due to time zone crossing. See the DAL1981 flight status page for this flight to view local times or setup timezone preferences in your user account.

Time Position Orientation Groundspeed Altitude Reporting Facility
EDT Latitude Longitude Course Direction KTS MPH feet Rate Location/Type
Tue 03:58:11 PM 38.6500 -121.5667 78° East 178 205 1,700  Level Northern Cal TRACON
Tue 03:59:11 PM 38.6333 -121.5000 108° East 237 273 3,600 2,158 Climbing Northern Cal TRACON
Tue 04:00:00 PM 38.4989 -121.2413 80° East  Level FlightAware Approximate
Tue 04:00:05 PM 38.6167 -121.4000 102° East 271 312 5,800  Level Northern Cal TRACON
Tue 04:01:00 PM 38.5375 -121.0794 76° East  Level FlightAware Approximate
Tue 04:01:05 PM 38.6333 -121.3000 78° East 312 359 8,300  Level Northern Cal TRACON
Tue 04:02:00 PM 38.5672 -120.9138 78° East  Level FlightAware Approximate
Tue 04:03:00 PM 38.5949 -120.7477 78° East  Level FlightAware Approximate
Tue 04:03:09 PM 38.6469 -121.0811 85° East 348 400 11,400  Level Oakland Center
Tue 04:04:10 PM 38.6583 -120.9400 84° East 388 447 13,400 2,016 Climbing Oakland Center
Tue 04:05:11 PM 38.6703 -120.7944 84° East 408 470 15,500 1,902 Climbing Oakland Center
Tue 04:06:13 PM 38.6831 -120.6436 84° East 424 488 17,300 1,951 Climbing Oakland Center
Tue 04:07:14 PM 38.7597 -120.4875 58° Northeast 440 506 19,500 1,918 Climbing Oakland Center
Tue 04:08:15 PM 38.8467 -120.3706 46° Northeast 450 518 21,200 1,610 Climbing Oakland Center
Tue 04:09:17 PM 38.9333 -120.2503 47° Northeast 458 527 22,800 1,268 Climbing Oakland Center
Tue 04:10:18 PM 39.0267 -120.1219 47° Northeast 471 542 23,800 1,073 Climbing Oakland Center
Tue 04:11:20 PM 39.1153 -120.0039 46° Northeast 482 555 25,000 1,171 Climbing Oakland Center
Tue 04:12:21 PM 39.2078 -119.8731 48° Northeast 491 565 26,200 1,180 Climbing Oakland Center
Tue 04:13:22 PM 39.3036 -119.7417 47° Northeast 497 572 27,400 1,024 Climbing Oakland Center
Tue 04:14:24 PM 39.4003 -119.6089 47° Northeast 503 579 28,300 927 Climbing Oakland Center
Tue 04:15:25 PM 39.4972 -119.4736 47° Northeast 509 586 29,300 1,268 Climbing Oakland Center
Tue 04:16:27 PM 39.6117 -119.3106 48° Northeast 507 583 30,900 1,268 Climbing Oakland Center
Tue 04:17:28 PM 39.7069 -119.1747 48° Northeast 505 581 31,900 984 Climbing Oakland Center
Tue 04:18:29 PM 39.8028 -119.0414 47° Northeast 501 577 32,900 878 Climbing Oakland Center
Tue 04:19:31 PM 39.8969 -118.9067 48° Northeast 498 573 33,700 585 Climbing Oakland Center
Tue 04:20:32 PM 39.9914 -118.7711 48° Northeast 501 577 34,100 590 Climbing Oakland Center
Tue 04:21:33 PM 40.0844 -118.6317 49° Northeast 505 581 34,900 439 Climbing Oakland Center
Tue 04:22:35 PM 40.1556 -118.4692 60° Northeast 509 586 35,000 49 Climbing Oakland Center
Tue 04:23:36 PM 40.2097 -118.2761 70° East 523 602 35,000  Level Salt Lake Center
Tue 04:24:38 PM 40.2569 -118.1097 70° East 524 603 35,000  Level Oakland Center
Tue 04:25:39 PM 40.3069 -117.9342 69° East 525 604 35,000  Level Oakland Center
Tue 04:26:40 PM 40.3631 -117.7333 70° East 524 603 35,000  Level Oakland Center
Tue 04:27:42 PM 40.4106 -117.5619 70° East 523 602 35,000  Level Oakland Center
Tue 04:28:43 PM 40.4578 -117.3900 70° East 522 601 35,000  Level Oakland Center
Tue 04:29:44 PM 40.5136 -117.1878 70° East 524 603 35,000  Level Oakland Center
Tue 04:30:47 PM 40.5608 -117.0119 70° East 522 601 35,000  Level Salt Lake Center
Tue 04:31:49 PM 40.6164 -116.8081 70° East 521 600 35,000  Level Salt Lake Center
Tue 04:32:51 PM 40.6619 -116.6353 71° East 518 596 35,000  Level Salt Lake Center
Tue 04:33:52 PM 40.7075 -116.4614 71° East 520 598 35,000 49 Level Salt Lake Center
Tue 04:34:54 PM 40.7603 -116.2606 71° East 520 598 35,100  Climbing Salt Lake Center
Tue 04:35:56 PM 40.8064 -116.0881 70° East 520 598 35,000 -49 Descending Salt Lake Center
Tue 04:36:57 PM 40.8575 -115.8881 71° East 514 592 35,000  Level Salt Lake Center
Tue 04:37:59 PM 40.9008 -115.7172 71° East 514 592 35,000  Level Salt Lake Center
Tue 04:39:01 PM 40.9453 -115.5456 71° East 514 592 35,000  Level Salt Lake Center
Tue 04:40:02 PM 40.9953 -115.3433 72° East 516 594 35,000  Level Salt Lake Center
Tue 04:41:04 PM 41.0389 -115.1703 71° East 517 595 35,000  Level Salt Lake Center
Tue 04:42:06 PM 41.0900 -114.9675 71° East 519 597 35,000  Level Salt Lake Center
Tue 04:43:08 PM 41.1356 -114.7853 72° East 516 594 35,000  Level Salt Lake Center
Tue 04:44:09 PM 41.1772 -114.6039 73° East 515 593 35,000  Level Salt Lake Center
Tue 04:45:11 PM 41.2228 -114.4228 71° East 517 595 35,000  Level Salt Lake Center
Tue 04:46:13 PM 41.2678 -114.2422 72° East 517 595 35,000  Level Salt Lake Center
Tue 04:47:15 PM 41.3111 -114.0606 72° East 516 594 35,000  Level Salt Lake Center
Tue 04:48:16 PM 41.3539 -113.8781 73° East 517 595 35,000  Level Salt Lake Center
Tue 04:49:18 PM 41.4086 -113.6611 71° East 516 594 35,000  Level Salt Lake Center
Tue 04:50:20 PM 41.4542 -113.4800 71° East 515 593 35,000  Level Salt Lake Center
Tue 04:51:22 PM 41.5008 -113.2997 71° East 515 593 35,000  Level Salt Lake Center
Tue 04:52:23 PM 41.5461 -113.1186 71° East 514 592 35,000  Level Salt Lake Center
Tue 04:53:25 PM 41.5908 -112.9378 72° East 513 590 35,000  Level Salt Lake Center
Tue 04:54:27 PM 41.6378 -112.7556 71° East 515 593 35,000  Level Salt Lake Center
Tue 04:55:28 PM 41.6819 -112.5736 72° East 515 593 35,000  Level Salt Lake Center
Tue 04:56:30 PM 41.7264 -112.3936 72° East 510 587 35,000  Level Salt Lake Center
Tue 04:57:32 PM 41.7783 -112.1783 72° East 505 581 35,000  Level Salt Lake Center
Tue 04:58:34 PM 41.8200 -112.0014 72° East 500 575 35,000  Level Salt Lake Center
Tue 04:59:35 PM 41.8625 -111.8250 72° East 497 572 35,000  Level Salt Lake Center
Tue 05:00:37 PM 41.9050 -111.6472 72° East 498 573 35,000  Level Salt Lake Center
Tue 05:01:39 PM 41.9478 -111.4706 72° East 497 572 35,000  Level Salt Lake Center
Tue 05:02:40 PM 41.9883 -111.2933 73° East 497 572 35,000  Level Salt Lake Center
Tue 05:03:42 PM 42.0294 -111.1153 73° East 498 573 35,000  Level Salt Lake Center
Tue 05:04:44 PM 42.0772 -110.9094 73° East 495 570 35,000  Level Salt Lake Center
Tue 05:05:46 PM 42.1167 -110.7378 73° East 500 575 35,000  Level Salt Lake Center
Tue 05:06:48 PM 42.1617 -110.5381 73° East 499 574 35,000  Level Salt Lake Center
Tue 05:07:49 PM 42.2003 -110.3661 73° East 501 577 35,000  Level Salt Lake Center
Tue 05:08:51 PM 42.2381 -110.1933 73° East 502 578 35,000  Level Salt Lake Center
Tue 05:09:53 PM 42.2822 -109.9922 73° East 501 577 35,000  Level Salt Lake Center
Tue 05:10:55 PM 42.3194 -109.8189 74° East 502 578 35,000  Level Salt Lake Center
Tue 05:11:57 PM 42.3647 -109.6164 73° East 502 578 35,000  Level Salt Lake Center
Tue 05:12:58 PM 42.4019 -109.4411 74° East 505 581 35,000  Level Salt Lake Center
Tue 05:14:00 PM 42.4458 -109.2364 74° East 506 582 35,000  Level Salt Lake Center
Tue 05:15:02 PM 42.4825 -109.0636 74° East 501 577 35,000  Level Salt Lake Center
Tue 05:16:04 PM 42.5192 -108.8892 74° East 502 578 35,000  Level Salt Lake Center
Tue 05:17:05 PM 42.5608 -108.6842 75° East 504 580 35,000  Level Salt Lake Center
Tue 05:18:07 PM 42.5964 -108.5072 75° East 507 583 35,000  Level Salt Lake Center
Tue 05:19:09 PM 42.6356 -108.3111 75° East 486 559 35,000  Level Salt Lake Center
Tue 05:20:11 PM 42.6686 -108.1489 74° East 473 544 35,000  Level Salt Lake Center
Tue 05:21:13 PM 42.7064 -107.9506 75° East 483 556 35,000  Level Salt Lake Center
Tue 05:22:15 PM 42.7389 -107.7861 75° East 476 548 35,000  Level Salt Lake Center
Tue 05:23:17 PM 42.7767 -107.5969 75° East 469 540 35,000  Level Salt Lake Center
Tue 05:24:18 PM 42.8081 -107.4319 75° East 469 540 35,000  Level Salt Lake Center
Tue 05:25:20 PM 42.8403 -107.2678 75° East 468 539 35,000  Level Salt Lake Center
Tue 05:26:22 PM 42.8767 -107.0756 75° East 469 540 35,000  Level Salt Lake Center
Tue 05:27:24 PM 42.9075 -106.9139 75° East 465 535 35,000  Level Salt Lake Center
Tue 05:27:47 PM 42.9244 -106.8283 75° East 475 547 35,000  Level Denver Center
Tue 05:28:49 PM 42.9558 -106.6603 76° East 478 550 35,000  Level Denver Center
Tue 05:29:51 PM 42.9928 -106.4606 76° East 483 556 35,000  Level Denver Center
Tue 05:30:53 PM 43.0233 -106.2925 76° East 480 552 35,000  Level Denver Center
Tue 05:31:55 PM 43.0542 -106.1231 76° East 480 552 35,000 -49 Level Denver Center
Tue 05:32:56 PM 43.0900 -105.9239 76° East 482 555 34,900  Descending Denver Center
Tue 05:33:58 PM 43.1206 -105.7506 76° East 487 560 35,000 48 Climbing Denver Center
Tue 05:35:00 PM 43.1581 -105.5472 76° East 492 566 35,000  Level Denver Center
Tue 05:36:02 PM 43.1869 -105.3739 77° East 488 562 35,000 48 Level Denver Center
Tue 05:37:04 PM 43.2231 -105.1694 76° East 492 566 35,100  Climbing Denver Center
Tue 05:38:06 PM 43.2522 -104.9964 77° East 488 562 35,000 -44 Descending Denver Center
Tue 05:39:20 PM 43.2861 -104.7939 77° East 486 559 35,000  Level Denver Center
Tue 05:40:22 PM 43.3211 -104.5878 77° East 491 565 35,000  Level Denver Center
Tue 05:41:24 PM 43.3547 -104.3831 77° East 491 565 35,000  Level Denver Center
Tue 05:42:26 PM 43.3781 -104.2347 78° East 494 568 35,000  Level Denver Center
Tue 05:43:28 PM 43.4167 -103.9983 77° East 496 571 35,000  Level Denver Center
Tue 05:44:30 PM 43.4447 -103.8244 77° East 489 563 35,000  Level Denver Center
Tue 05:45:32 PM 43.4731 -103.6483 77° East 491 565 35,000  Level Denver Center
Tue 05:46:34 PM 43.5053 -103.4411 78° East 494 568 35,000  Level Denver Center
Tue 05:47:35 PM 43.5328 -103.2589 78° East 502 578 35,000  Level Denver Center
Tue 05:48:37 PM 43.5642 -103.0447 78° East 511 588 35,000  Level Denver Center
Tue 05:49:39 PM 43.5928 -102.8550 78° East 526 605 35,000  Level Denver Center
Tue 05:50:41 PM 43.6253 -102.6350 78° East 526 605 35,000  Level Denver Center
Tue 05:51:43 PM 43.6503 -102.4428 80° East 530 610 35,000  Level Denver Center
Tue 05:52:45 PM 43.6853 -102.2228 78° East 529 609 35,000  Level Denver Center
Tue 05:53:47 PM 43.7106 -102.0336 79° East 535 616 35,000  Level Denver Center
Tue 05:54:49 PM 43.7342 -101.8756 78° East 530 610 35,000  Level Denver Center
Tue 05:55:51 PM 43.7650 -101.6417 80° East 514 592 35,000  Level Denver Center
Tue 05:56:40 PM 43.7831 -101.4908 81° East 517 595 35,000 324 Level Minneapolis Center
Tue 05:57:42 PM 43.8156 -101.2728 78° East 494 568 35,600 823 Climbing Minneapolis Center
Tue 05:58:44 PM 43.8408 -101.0914 79° East 486 559 36,700 629 Climbing Minneapolis Center
Tue 05:59:46 PM 43.8642 -100.9094 80° East 482 555 36,900 143 Climbing Minneapolis Center
Tue 06:00:50 PM 43.8881 -100.7233 80° East 486 559 37,000 48 Climbing Minneapolis Center
Tue 06:01:52 PM 43.9114 -100.5353 80° East 491 565 37,000  Level Minneapolis Center
Tue 06:02:54 PM 43.9406 -100.3111 80° East 495 570 37,000  Level Minneapolis Center
Tue 06:03:56 PM 43.9642 -100.1231 80° East 496 571 37,000  Level Minneapolis Center
Tue 06:04:58 PM 43.9872 -99.9358 80° East 496 571 37,000  Level Minneapolis Center
Tue 06:06:00 PM 44.0097 -99.7483 80° East 496 571 37,000  Level Minneapolis Center
Tue 06:07:02 PM 44.0325 -99.5567 81° East 498 573 37,000  Level Minneapolis Center
Tue 06:08:04 PM 44.0600 -99.3244 81° East 504 580 37,000  Level Minneapolis Center
Tue 06:09:06 PM 44.0819 -99.1294 81° East 508 585 37,000  Level Minneapolis Center
Tue 06:10:08 PM 44.1039 -98.9344 81° East 511 588 37,000  Level Minneapolis Center
Tue 06:11:10 PM 44.1258 -98.7406 81° East 511 588 37,000  Level Minneapolis Center
Tue 06:12:12 PM 44.1483 -98.5439 81° East 511 588 37,000  Level Minneapolis Center
Tue 06:13:14 PM 44.1689 -98.3494 82° East 509 586 37,000  Level Minneapolis Center
Tue 06:14:16 PM 44.1894 -98.1542 82° East 511 588 37,000  Level Minneapolis Center
Tue 06:15:18 PM 44.2144 -97.9192 81° East 513 590 37,000  Level Minneapolis Center
Tue 06:16:20 PM 44.2342 -97.7239 82° East 512 589 37,000  Level Minneapolis Center
Tue 06:17:22 PM 44.2536 -97.5281 82° East 512 589 37,000  Level Minneapolis Center
Tue 06:18:24 PM 44.2731 -97.3311 82° East 513 590 37,000  Level Minneapolis Center
Tue 06:19:26 PM 44.2906 -97.1356 83° East 510 587 37,000  Level Minneapolis Center
Tue 06:20:28 PM 44.3103 -96.9394 82° East 511 588 37,000  Level Minneapolis Center
Tue 06:21:30 PM 44.3331 -96.7036 82° East 510 587 37,000  Level Minneapolis Center
Tue 06:22:32 PM 44.3519 -96.5053 82° East 512 589 37,000  Level Minneapolis Center
Tue 06:23:34 PM 44.3706 -96.3025 83° East 516 594 37,000  Level Minneapolis Center
Tue 06:24:36 PM 44.3883 -96.0986 83° East 516 594 37,000 -823 Level Minneapolis Center
Tue 06:25:38 PM 44.4047 -95.8983 83° East 514 592 35,300 -2,903 Descending Minneapolis Center
Tue 06:26:40 PM 44.4219 -95.6936 83° East 526 605 31,000 -3,242 Descending Minneapolis Center
Tue 06:27:42 PM 44.4386 -95.4889 83° East 530 610 28,600 -2,274 Descending Minneapolis Center
Tue 06:28:44 PM 44.4539 -95.2939 84° East 510 587 26,300 -2,468 Descending Minneapolis Center
Tue 06:29:46 PM 44.4781 -95.0750 81° East 477 549 23,500 -2,256 Descending Minneapolis Center
Tue 06:30:49 PM 44.5200 -94.9078 71° East 459 528 21,600 -1,920 Descending Minneapolis Center
Tue 06:31:51 PM 44.5581 -94.7467 72° East 444 511 19,500 -2,177 Descending Minneapolis Center
Tue 06:32:53 PM 44.5961 -94.5844 72° East 431 496 17,100 -2,226 Descending Minneapolis Center
Tue 06:33:55 PM 44.6308 -94.4303 72° East 414 476 14,900 -2,081 Descending Minneapolis Center
Tue 06:34:57 PM 44.6650 -94.2806 72° East 406 467 12,800 -1,887 Descending Minneapolis Center
Tue 06:35:59 PM 44.6983 -94.1358 72° East 389 448 11,000 -919 Descending Minneapolis Center
Tue 06:37:01 PM 44.7347 -93.9728 73° East 366 421 10,900 -145 Descending Minneapolis Center
Tue 06:38:03 PM 44.7619 -93.8503 73° East 321 369 10,700 -912 Descending Minneapolis Center
Tue 06:39:06 PM 44.7878 -93.7333 73° East 313 360 9,000 -1,248 Descending Minneapolis Center
Tue 06:40:08 PM 44.8131 -93.6192 73° East 306 352 8,100 -484 Descending Minneapolis Center
Tue 06:41:10 PM 44.8383 -93.5047 73° East 306 352 8,000 -48 Descending Minneapolis Center
Tue 06:42:12 PM 44.8611 -93.3981 73° East 280 322 8,000 -339 Level Minneapolis Center
Tue 06:43:14 PM 44.8119 -93.3108 128° Southeast 276 318 7,300 -871 Descending Minneapolis Center
Tue 06:44:16 PM 44.7406 -93.3058 177° South 267 307 6,200 -1,161 Descending Minneapolis Center
Tue 06:45:18 PM 44.6847 -93.3047 179° South 207 238 4,900 -1,258 Descending Minneapolis Center
Tue 06:46:20 PM 44.6814 -93.2400 94° East 224 258 3,600 -1,258 Descending Minneapolis Center

Login

Don't have an account? Register now (free) for customized features, flight alerts, and more!